Airmont, New York
Current Conditions -  °F | °C
As of 1:51 AM on Sunday 21 Dec 2014 (Local Time) from KTEB Reporting Station
Overcast Overcast  
Wind Chill:   Ceiling: 2800
Heat Index:   Visibility: 10mi
Dew Point: -6°   Wind: 3mph
Humidity: 66%   Direction: 340°NNW
Pressure: 30.28"   Gusts: NA
Location:  41.1112°N, 74.0777°W
Report Text: KTEB 210651Z 34003KT 10SM OVC028 00/M06 A3028 RMK AO2 SLP253 T00001056
Loading
Personal Weather Stations






























Interactive Weather Map New forecast layout! Learn more

10-Day Weather Forecast

Advertisements
Track Severe Weather on mobile